Time;durP1;ratioP1;P1;durP2;ratioP2;P2;SDS_P1;SDS_P2;PMS_P1;PMS_P2;Temp;Humidity;BMP_temperature;BMP_pressure;BME280_temperature;BME280_humidity;BME280_pressure;Samples;Min_cycle;Max_cycle;Signal;HPM_P1;HPM_P2
2023/05/20 00:00:40;;;;;;;23.92;14.27;;;14.30;99.90;;;;;;5032262;28;20041;-73
2023/05/20 00:03:06;;;;;;;19.98;14.18;;;14.20;99.90;;;;;;5015728;28;20363;-72
2023/05/20 00:05:33;;;;;;;25.33;14.57;;;14.10;99.90;;;;;;5031730;28;20040;-72
2023/05/20 00:07:59;;;;;;;22.50;14.43;;;14.10;99.90;;;;;;5032062;28;20418;-72
2023/05/20 00:10:25;;;;;;;22.23;14.05;;;14.20;99.90;;;;;;5032939;28;20041;-72
2023/05/20 00:12:51;;;;;;;22.35;14.38;;;14.20;99.90;;;;;;5031777;28;20029;-72
2023/05/20 00:15:17;;;;;;;21.85;13.68;;;14.20;99.90;;;;;;5032053;28;20030;-71
2023/05/20 00:17:43;;;;;;;22.08;14.02;;;14.20;99.90;;;;;;5032279;28;20497;-72
2023/05/20 00:20:10;;;;;;;23.33;14.45;;;14.20;99.90;;;;;;5032577;28;20029;-72
2023/05/20 00:22:36;;;;;;;25.70;14.52;;;14.10;99.90;;;;;;5032009;28;20379;-72
2023/05/20 00:25:02;;;;;;;24.00;14.55;;;14.20;99.90;;;;;;5032954;28;20026;-72
2023/05/20 00:27:28;;;;;;;24.83;14.07;;;14.30;99.90;;;;;;5030024;28;20042;-72
2023/05/20 00:29:54;;;;;;;16.42;13.45;;;14.30;99.90;;;;;;5031598;28;20033;-72
2023/05/20 00:32:20;;;;;;;19.08;13.48;;;14.20;99.90;;;;;;5032052;28;20037;-72
2023/05/20 00:34:56;;;;;;;22.10;13.63;;;14.00;99.90;;;;;;5031582;28;20040;-72
2023/05/20 00:37:22;;;;;;;17.58;12.90;;;14.00;99.90;;;;;;5029802;28;20044;-72
2023/05/20 00:39:48;;;;;;;19.17;13.82;;;13.70;99.90;;;;;;5031261;28;20032;-72
2023/05/20 00:42:24;;;;;;;20.25;13.35;;;13.70;99.90;;;;;;5031273;28;20045;-72
2023/05/20 00:44:50;;;;;;;23.77;13.93;;;13.70;99.90;;;;;;5030228;28;20029;-72
2023/05/20 00:47:17;;;;;;;25.17;13.35;;;13.80;99.90;;;;;;5065724;28;20045;-72
2023/05/20 00:49:46;;;;;;;23.45;13.52;;;13.80;99.90;;;;;;5031333;28;20062;-72
2023/05/20 00:52:13;;;;;;;23.13;13.63;;;13.70;99.90;;;;;;5030976;28;20030;-72
2023/05/20 00:54:39;;;;;;;24.58;13.23;;;13.50;99.90;;;;;;5032490;28;20033;-72
2023/05/20 00:57:06;;;;;;;24.85;13.90;;;13.60;99.90;;;;;;5029440;28;20562;-72
2023/05/20 00:59:35;;;;;;;21.52;13.38;;;13.50;99.90;;;;;;5031959;28;20029;-72
2023/05/20 01:02:03;;;;;;;19.40;13.23;;;13.70;99.90;;;;;;5030255;28;20041;-71
2023/05/20 01:04:29;;;;;;;17.63;12.57;;;13.80;99.90;;;;;;5032385;28;20017;-70
2023/05/20 01:06:56;;;;;;;22.20;12.30;;;13.80;99.90;;;;;;5030270;28;20041;-70
2023/05/20 01:09:23;;;;;;;15.18;12.68;;;13.60;99.90;;;;;;5030868;28;20038;-70
2023/05/20 01:12:05;;;;;;;19.52;13.40;;;13.60;99.90;;;;;;5031887;28;20049;-70
2023/05/20 01:14:34;;;;;;;21.00;12.75;;;13.30;99.90;;;;;;5030270;28;20041;-70
2023/05/20 01:17:01;;;;;;;16.92;11.90;;;13.40;99.90;;;;;;5012367;28;20048;-70
2023/05/20 01:19:34;;;;;;;18.23;12.43;;;13.40;99.90;;;;;;5030016;28;20033;-70
2023/05/20 01:22:02;;;;;;;21.80;12.02;;;13.30;99.90;;;;;;5030486;28;20053;-70
2023/05/20 01:24:28;;;;;;;18.73;12.52;;;13.40;99.90;;;;;;5014498;28;20074;-70
2023/05/20 01:26:56;;;;;;;17.10;12.50;;;13.40;99.90;;;;;;5031002;28;20059;-70
2023/05/20 01:29:24;;;;;;;23.73;13.23;;;13.20;99.90;;;;;;5031815;28;20025;-70
2023/05/20 01:31:50;;;;;;;18.35;11.88;;;13.20;99.90;;;;;;5031224;28;20045;-70
2023/05/20 01:34:16;;;;;;;17.98;11.95;;;13.30;99.90;;;;;;5030721;28;20030;-70
2023/05/20 01:36:42;;;;;;;20.00;12.07;;;13.10;99.90;;;;;;5029753;28;20040;-70
2023/05/20 01:39:08;;;;;;;18.95;12.20;;;13.00;99.90;;;;;;5013493;28;20033;-70
2023/05/20 01:41:34;;;;;;;21.42;11.48;;;12.90;99.90;;;;;;5030406;28;20255;-70
2023/05/20 01:44:01;;;;;;;23.85;13.27;;;12.90;99.90;;;;;;5030183;28;20026;-70
2023/05/20 01:46:27;;;;;;;16.52;11.82;;;12.90;99.90;;;;;;5012620;28;20498;-70
2023/05/20 01:48:53;;;;;;;18.63;12.52;;;13.10;99.90;;;;;;5033120;28;20040;-70
2023/05/20 01:51:19;;;;;;;16.05;11.75;;;13.20;99.90;;;;;;5039922;28;20064;-70
2023/05/20 01:53:45;;;;;;;19.25;12.00;;;13.10;99.90;;;;;;5030259;28;20041;-70
2023/05/20 01:56:11;;;;;;;17.90;11.57;;;13.00;99.90;;;;;;5030859;28;20045;-70
2023/05/20 01:58:37;;;;;;;20.38;12.32;;;13.00;99.90;;;;;;5048407;28;20046;-70
2023/05/20 02:01:04;;;;;;;17.13;11.68;;;13.10;99.90;;;;;;5034143;28;20045;-70
2023/05/20 02:03:30;;;;;;;20.40;11.75;;;13.10;99.90;;;;;;5032784;28;20389;-69
2023/05/20 02:05:56;;;;;;;20.58;13.20;;;13.00;99.90;;;;;;5025068;28;20031;-70
2023/05/20 02:08:22;;;;;;;21.42;12.32;;;13.00;99.90;;;;;;5026240;28;20386;-70
2023/05/20 02:10:48;;;;;;;18.88;12.38;;;13.00;99.90;;;;;;5019054;28;20034;-70
2023/05/20 02:13:14;;;;;;;17.35;11.35;;;12.80;99.90;;;;;;5032837;28;20406;-70
2023/05/20 02:15:41;;;;;;;21.48;12.48;;;12.80;99.90;;;;;;5027516;28;20048;-70
2023/05/20 02:18:07;;;;;;;21.25;12.23;;;12.80;99.90;;;;;;5031657;28;20466;-70
2023/05/20 02:20:36;;;;;;;22.17;12.02;;;12.80;99.90;;;;;;5033780;28;20037;-70
2023/05/20 02:23:04;;;;;;;21.25;12.35;;;12.80;99.90;;;;;;5034034;28;20137;-70
2023/05/20 02:25:31;;;;;;;17.75;11.57;;;12.60;99.90;;;;;;5031910;28;20033;-70
2023/05/20 02:27:57;;;;;;;19.95;11.98;;;12.70;99.90;;;;;;5033233;28;20049;-70
2023/05/20 02:30:23;;;;;;;21.52;12.30;;;12.70;99.90;;;;;;5033458;28;20391;-70
2023/05/20 02:32:49;;;;;;;18.52;11.52;;;12.70;99.90;;;;;;5033694;28;20029;-71
2023/05/20 02:35:16;;;;;;;15.57;11.60;;;12.70;99.90;;;;;;5033285;28;20052;-70
2023/05/20 02:37:43;;;;;;;26.35;12.68;;;12.60;99.90;;;;;;5033791;28;20033;-71
2023/05/20 02:40:09;;;;;;;18.33;12.32;;;12.70;99.90;;;;;;5034463;28;20037;-70
2023/05/20 02:42:36;;;;;;;18.42;12.02;;;12.70;99.90;;;;;;5014986;28;20069;-70
2023/05/20 02:45:02;;;;;;;21.27;12.68;;;12.80;99.90;;;;;;5014628;28;20034;-70
2023/05/20 02:47:28;;;;;;;19.30;11.90;;;12.80;99.90;;;;;;5039505;28;20049;-70
2023/05/20 02:49:54;;;;;;;20.52;11.70;;;12.70;99.90;;;;;;5054596;28;20493;-70
2023/05/20 02:52:20;;;;;;;22.38;12.60;;;12.80;99.90;;;;;;5035821;28;20422;-70
2023/05/20 02:54:46;;;;;;;20.45;12.25;;;12.90;99.90;;;;;;5046024;28;20407;-70
2023/05/20 02:57:13;;;;;;;21.75;12.20;;;12.70;99.90;;;;;;5030833;28;20041;-70
2023/05/20 02:59:39;;;;;;;20.45;12.60;;;12.60;99.90;;;;;;5033353;28;20034;-70
2023/05/20 03:02:05;;;;;;;17.17;12.32;;;12.70;99.90;;;;;;5032835;28;20060;-70
2023/05/20 03:04:31;;;;;;;20.17;12.10;;;12.70;99.90;;;;;;5033924;28;20367;-70
2023/05/20 03:06:57;;;;;;;18.42;12.20;;;12.70;99.90;;;;;;5033697;28;20041;-70
2023/05/20 03:09:24;;;;;;;18.08;11.77;;;12.50;99.90;;;;;;5032530;28;20498;-70
2023/05/20 03:11:50;;;;;;;18.55;12.48;;;12.50;99.90;;;;;;5034007;28;20045;-70
2023/05/20 03:14:16;;;;;;;17.70;12.85;;;12.60;99.90;;;;;;5034271;28;20041;-70
2023/05/20 03:16:42;;;;;;;21.40;12.70;;;12.60;99.90;;;;;;5033379;28;20085;-70
2023/05/20 03:19:08;;;;;;;18.45;12.55;;;12.40;99.90;;;;;;5032388;28;20026;-70
2023/05/20 03:21:34;;;;;;;22.02;11.75;;;12.40;99.90;;;;;;5033826;28;20389;-70
2023/05/20 03:24:00;;;;;;;17.30;12.23;;;12.30;99.90;;;;;;5033675;28;20029;-70
2023/05/20 03:26:26;;;;;;;21.35;12.18;;;12.20;99.90;;;;;;5033701;28;20402;-70
2023/05/20 03:28:52;;;;;;;24.77;12.70;;;12.20;99.90;;;;;;5032072;28;20041;-70
2023/05/20 03:31:18;;;;;;;20.55;12.40;;;12.10;99.90;;;;;;5033322;28;20429;-70
2023/05/20 03:33:45;;;;;;;24.75;13.52;;;12.10;99.90;;;;;;5033890;28;20030;-70
2023/05/20 03:36:11;;;;;;;21.85;12.43;;;12.20;99.90;;;;;;5033364;28;20482;-70
2023/05/20 03:38:37;;;;;;;21.70;12.75;;;12.30;99.90;;;;;;5047417;28;20045;-70
2023/05/20 03:41:03;;;;;;;22.05;12.60;;;12.30;99.90;;;;;;5033326;28;20462;-70
2023/05/20 03:43:29;;;;;;;22.35;13.40;;;12.20;99.90;;;;;;5032420;28;20474;-70
2023/05/20 03:45:55;;;;;;;21.98;12.30;;;12.00;99.90;;;;;;5032716;28;20050;-70
2023/05/20 03:48:21;;;;;;;22.05;12.93;;;11.90;99.90;;;;;;5032663;28;20389;-70
2023/05/20 03:50:48;;;;;;;18.83;13.30;;;12.00;99.90;;;;;;5033214;28;20036;-70
2023/05/20 03:53:16;;;;;;;22.30;13.23;;;12.20;99.90;;;;;;5048003;28;20160;-70
2023/05/20 03:55:42;;;;;;;25.73;12.98;;;12.10;99.90;;;;;;5048319;28;20029;-70
2023/05/20 03:58:08;;;;;;;20.95;12.35;;;12.10;99.90;;;;;;5030723;28;20050;-70
2023/05/20 04:00:34;;;;;;;22.17;12.93;;;12.20;99.90;;;;;;5031909;28;20033;-70
2023/05/20 04:03:00;;;;;;;20.70;12.93;;;12.10;99.90;;;;;;5033149;28;20045;-70
2023/05/20 04:05:26;;;;;;;19.90;13.88;;;12.10;99.90;;;;;;5014626;28;20037;-70
2023/05/20 04:07:52;;;;;;;18.90;12.93;;;12.00;99.90;;;;;;5031504;28;20033;-70
2023/05/20 04:10:19;;;;;;;21.88;13.43;;;11.90;99.90;;;;;;5032081;28;20029;-70
2023/05/20 04:12:45;;;;;;;20.95;13.57;;;11.90;99.90;;;;;;5026136;28;20041;-70
2023/05/20 04:15:11;;;;;;;22.30;14.07;;;12.00;99.90;;;;;;5014092;28;20509;-70
2023/05/20 04:17:39;;;;;;;23.73;13.60;;;12.20;99.90;;;;;;5031842;28;20378;-70
2023/05/20 04:20:06;;;;;;;21.35;13.85;;;12.10;99.90;;;;;;5032735;28;20022;-70
2023/05/20 04:22:33;;;;;;;21.50;14.00;;;12.00;99.90;;;;;;5031032;28;20033;-70
2023/05/20 04:24:59;;;;;;;19.80;13.60;;;11.90;99.90;;;;;;5031720;28;20026;-70
2023/05/20 04:27:25;;;;;;;21.98;13.95;;;11.80;99.90;;;;;;5030288;28;20033;-70
2023/05/20 04:29:53;;;;;;;23.60;14.05;;;11.80;99.90;;;;;;5032621;28;20391;-70
2023/05/20 04:32:19;;;;;;;21.33;13.57;;;11.80;99.90;;;;;;5030818;28;20037;-70
2023/05/20 04:34:46;;;;;;;22.45;13.43;;;11.70;99.90;;;;;;5032949;28;20037;-70
2023/05/20 04:37:13;;;;;;;25.33;14.25;;;11.70;99.90;;;;;;5028300;28;20060;-70
2023/05/20 04:39:42;;;;;;;25.90;14.27;;;11.70;99.90;;;;;;5030702;28;20029;-70
2023/05/20 04:42:08;;;;;;;26.17;15.48;;;11.60;99.90;;;;;;5063826;28;20061;-70
2023/05/20 04:44:34;;;;;;;21.73;13.68;;;11.50;99.90;;;;;;5032548;28;20028;-69
2023/05/20 04:47:00;;;;;;;24.92;14.15;;;11.50;99.90;;;;;;5033441;28;20045;-70
2023/05/20 04:49:28;;;;;;;24.75;13.70;;;11.40;99.90;;;;;;5032386;28;20414;-70
2023/05/20 04:51:54;;;;;;;22.70;13.55;;;11.40;99.90;;;;;;5031822;28;20029;-70
2023/05/20 04:54:21;;;;;;;25.30;15.13;;;11.30;99.90;;;;;;5032511;28;20030;-70
2023/05/20 04:56:47;;;;;;;25.65;14.43;;;11.20;99.90;;;;;;5032072;28;20040;-70
2023/05/20 04:59:13;;;;;;;23.17;13.75;;;11.20;99.90;;;;;;5030560;28;20037;-70
2023/05/20 05:01:39;;;;;;;24.92;13.90;;;11.30;99.90;;;;;;5031478;28;20037;-70
2023/05/20 05:04:05;;;;;;;21.15;13.82;;;11.30;99.90;;;;;;5031079;28;20035;-70
2023/05/20 05:06:31;;;;;;;21.75;13.65;;;11.40;99.90;;;;;;5031599;28;20021;-70
2023/05/20 05:08:57;;;;;;;25.73;14.60;;;11.50;99.90;;;;;;5029291;28;20040;-69
2023/05/20 05:11:23;;;;;;;22.27;13.77;;;11.60;99.90;;;;;;5029791;28;20036;-70
2023/05/20 05:13:50;;;;;;;20.58;13.52;;;11.60;99.90;;;;;;5031645;28;20038;-70
2023/05/20 05:16:16;;;;;;;20.23;13.55;;;11.70;99.90;;;;;;5030559;28;20038;-69
2023/05/20 05:18:42;;;;;;;19.90;12.75;;;11.70;99.90;;;;;;5031236;28;20390;-70
2023/05/20 05:21:08;;;;;;;21.20;12.60;;;11.80;99.90;;;;;;5029664;28;20029;-70
2023/05/20 05:23:34;;;;;;;25.55;13.68;;;11.90;99.90;;;;;;5029988;28;20445;-70
2023/05/20 05:26:00;;;;;;;25.08;12.43;;;12.00;99.90;;;;;;5031191;28;20340;-70
2023/05/20 05:28:26;;;;;;;21.02;14.23;;;12.10;99.90;;;;;;5031142;28;20044;-71
2023/05/20 05:30:55;;;;;;;24.25;13.10;;;12.20;99.90;;;;;;5031437;28;20028;-70
2023/05/20 05:33:21;;;;;;;23.48;13.00;;;12.30;99.90;;;;;;5033836;28;20046;-70
2023/05/20 05:35:48;;;;;;;19.52;12.05;;;12.40;99.90;;;;;;5035478;28;20040;-71
2023/05/20 05:38:14;;;;;;;19.48;11.82;;;12.40;99.90;;;;;;5033524;28;20034;-70
2023/05/20 05:40:40;;;;;;;20.25;12.05;;;12.50;99.90;;;;;;5036028;28;20045;-71
2023/05/20 05:43:06;;;;;;;22.90;12.25;;;12.50;99.90;;;;;;5035942;28;20041;-70
2023/05/20 05:45:32;;;;;;;22.15;12.88;;;12.50;99.90;;;;;;5035220;28;20037;-70
2023/05/20 05:47:58;;;;;;;25.15;13.13;;;12.70;99.90;;;;;;5039649;28;20060;-70
2023/05/20 05:50:24;;;;;;;24.13;12.32;;;12.80;99.90;;;;;;5035303;28;20056;-71
2023/05/20 05:52:51;;;;;;;20.48;12.40;;;13.00;99.90;;;;;;5035909;28;20025;-71
2023/05/20 05:55:17;;;;;;;21.30;12.40;;;13.00;99.90;;;;;;5035964;28;20393;-70
2023/05/20 05:57:43;;;;;;;21.85;12.57;;;12.90;99.90;;;;;;5034789;28;20474;-70
2023/05/20 06:00:10;;;;;;;25.55;12.50;;;13.00;99.90;;;;;;5035285;28;20038;-68
2023/05/20 06:02:36;;;;;;;18.40;12.25;;;13.10;99.90;;;;;;5033518;28;20053;-66
2023/05/20 06:05:02;;;;;;;19.85;12.02;;;13.30;99.90;;;;;;5034919;28;20025;-72
2023/05/20 06:07:29;;;;;;;20.75;12.55;;;13.40;99.90;;;;;;5032468;28;20041;-71
2023/05/20 06:09:55;;;;;;;16.25;11.73;;;13.50;99.90;;;;;;5035331;28;20038;-70
2023/05/20 06:12:21;;;;;;;20.10;12.43;;;13.50;99.90;;;;;;5030410;28;20037;-70
2023/05/20 06:14:47;;;;;;;22.83;13.18;;;13.50;99.90;;;;;;5034362;28;20033;-73
2023/05/20 06:17:13;;;;;;;18.48;12.63;;;13.70;99.90;;;;;;5033176;28;20037;-70
2023/05/20 06:19:40;;;;;;;21.40;12.90;;;13.80;99.90;;;;;;5033480;28;20041;-70
2023/05/20 06:22:06;;;;;;;24.58;13.43;;;13.80;99.90;;;;;;5033111;28;20056;-71
2023/05/20 06:24:33;;;;;;;20.70;12.40;;;13.80;99.90;;;;;;5034959;28;20033;-71
2023/05/20 06:26:59;;;;;;;18.15;12.15;;;13.90;99.90;;;;;;5034803;28;20030;-71
2023/05/20 06:29:25;;;;;;;23.00;12.10;;;14.10;99.90;;;;;;5033277;28;20040;-71
2023/05/20 06:31:51;;;;;;;20.70;12.07;;;14.20;99.90;;;;;;5031737;28;20045;-71
2023/05/20 06:34:17;;;;;;;19.75;12.85;;;14.20;99.90;;;;;;5033056;28;20025;-70
2023/05/20 06:36:43;;;;;;;18.70;12.18;;;14.30;99.90;;;;;;5032609;28;20399;-71
2023/05/20 06:39:12;;;;;;;21.15;12.70;;;14.20;99.90;;;;;;5034740;28;20124;-70
2023/05/20 06:41:38;;;;;;;18.02;11.52;;;14.10;99.90;;;;;;5065868;28;20045;-71
2023/05/20 06:44:05;;;;;;;19.48;12.93;;;14.30;99.90;;;;;;5033896;28;20375;-71
2023/05/20 06:46:32;;;;;;;19.52;11.40;;;14.40;99.90;;;;;;5032921;28;20510;-71
2023/05/20 06:48:58;;;;;;;17.35;11.68;;;14.40;99.90;;;;;;5038386;28;20065;-71
2023/05/20 06:51:24;;;;;;;19.83;12.18;;;14.40;99.90;;;;;;5030374;28;20390;-71
2023/05/20 06:53:50;;;;;;;19.80;11.77;;;14.40;99.90;;;;;;5029960;28;20045;-71
2023/05/20 06:56:16;;;;;;;20.67;11.82;;;14.50;99.90;;;;;;5030915;28;20041;-71
2023/05/20 06:58:43;;;;;;;19.52;12.38;;;14.50;99.90;;;;;;5033711;28;20064;-71
2023/05/20 07:01:09;;;;;;;17.48;11.27;;;14.70;99.90;;;;;;5033438;28;20030;-71
2023/05/20 07:03:35;;;;;;;18.27;10.88;;;14.90;99.90;;;;;;5033283;28;20041;-71
2023/05/20 07:06:01;;;;;;;16.55;11.05;;;14.90;99.90;;;;;;5034192;28;20030;-72
2023/05/20 07:08:27;;;;;;;17.67;11.18;;;14.90;99.90;;;;;;5033072;28;20029;-71
2023/05/20 07:10:57;;;;;;;16.95;11.00;;;15.00;99.90;;;;;;5034179;28;20041;-71
2023/05/20 07:13:23;;;;;;;17.73;11.30;;;15.00;99.90;;;;;;5034289;28;20029;-71
2023/05/20 07:15:49;;;;;;;14.95;10.07;;;15.30;99.90;;;;;;5033491;28;20033;-72
2023/05/20 07:18:15;;;;;;;17.48;11.82;;;15.30;99.90;;;;;;5032099;28;20033;-72
2023/05/20 07:20:41;;;;;;;18.45;10.57;;;15.30;99.90;;;;;;5065410;28;20033;-72
2023/05/20 07:23:07;;;;;;;16.20;10.40;;;15.40;99.90;;;;;;5034099;28;20390;-72
2023/05/20 07:25:33;;;;;;;13.13;9.38;;;15.60;99.90;;;;;;5031646;28;20025;-72
2023/05/20 07:27:59;;;;;;;14.80;10.80;;;15.60;99.90;;;;;;5031915;28;20375;-72
2023/05/20 07:30:26;;;;;;;21.45;11.25;;;15.60;99.90;;;;;;5045701;28;20501;-72
2023/05/20 07:32:52;;;;;;;17.70;10.30;;;15.70;99.90;;;;;;5032299;28;20037;-72
2023/05/20 07:35:18;;;;;;;17.75;10.65;;;15.80;99.90;;;;;;5032316;28;20036;-72
2023/05/20 07:37:44;;;;;;;16.10;10.18;;;15.90;99.90;;;;;;5030596;28;20042;-71
2023/05/20 07:40:11;;;;;;;17.13;9.75;;;16.00;99.90;;;;;;5031523;28;20033;-72
2023/05/20 07:42:37;;;;;;;16.80;9.45;;;16.10;99.90;;;;;;5013866;28;20042;-71
2023/05/20 07:45:03;;;;;;;15.48;10.15;;;16.30;99.90;;;;;;5013249;28;20379;-71
2023/05/20 07:47:31;;;;;;;20.17;10.00;;;16.50;99.90;;;;;;5040029;28;20382;-71
2023/05/20 07:49:57;;;;;;;14.35;10.38;;;16.40;99.90;;;;;;5034789;28;20064;-71
2023/05/20 07:52:23;;;;;;;16.48;9.95;;;16.30;99.90;;;;;;5033292;28;20309;-71
2023/05/20 07:54:50;;;;;;;14.10;8.82;;;16.50;99.90;;;;;;5033527;28;20040;-72
2023/05/20 07:57:16;;;;;;;17.08;9.73;;;16.60;99.90;;;;;;5032862;28;20056;-71
2023/05/20 07:59:42;;;;;;;17.58;10.15;;;16.50;99.90;;;;;;5026811;28;20470;-71
2023/05/20 08:02:08;;;;;;;14.73;9.07;;;16.60;99.90;;;;;;5029093;28;20034;-71
2023/05/20 08:04:34;;;;;;;14.63;9.73;;;16.80;99.90;;;;;;5032822;28;20497;-71
2023/05/20 08:07:01;;;;;;;14.95;9.20;;;17.00;99.90;;;;;;5031275;28;20036;-71
2023/05/20 08:09:27;;;;;;;14.18;9.52;;;17.00;99.90;;;;;;5032421;28;20056;-71
2023/05/20 08:11:53;;;;;;;18.35;9.60;;;17.10;99.90;;;;;;5032051;28;20033;-71
2023/05/20 08:14:19;;;;;;;18.60;10.68;;;17.30;99.90;;;;;;5031771;28;20041;-71
2023/05/20 08:16:45;;;;;;;15.40;10.20;;;17.50;99.90;;;;;;5031226;28;20034;-71
2023/05/20 08:19:11;;;;;;;18.55;10.13;;;17.40;99.90;;;;;;5032331;28;20025;-72
2023/05/20 08:21:38;;;;;;;15.75;9.90;;;17.50;99.90;;;;;;5028534;28;20021;-71
2023/05/20 08:24:05;;;;;;;17.27;10.27;;;17.70;99.90;;;;;;5031733;28;20056;-72
2023/05/20 08:26:31;;;;;;;15.63;10.18;;;17.70;99.90;;;;;;5031726;28;20052;-71
2023/05/20 08:28:57;;;;;;;15.05;10.25;;;17.70;99.90;;;;;;5028731;28;20033;-71
2023/05/20 08:31:23;;;;;;;17.50;10.88;;;17.70;99.90;;;;;;5028413;28;20056;-71
2023/05/20 08:33:49;;;;;;;18.88;11.27;;;17.70;99.90;;;;;;5031603;28;20029;-71
2023/05/20 08:36:15;;;;;;;16.73;10.60;;;17.70;99.90;;;;;;5031060;28;20034;-71
2023/05/20 08:38:42;;;;;;;15.25;10.70;;;17.80;99.90;;;;;;5030127;28;20493;-71
2023/05/20 08:41:08;;;;;;;16.75;11.00;;;17.90;99.90;;;;;;5027610;28;20033;-71
2023/05/20 08:43:34;;;;;;;13.93;10.30;;;18.00;99.90;;;;;;5031880;28;20389;-71
2023/05/20 08:46:03;;;;;;;15.48;10.65;;;18.10;99.90;;;;;;5029874;28;20045;-71
2023/05/20 08:48:29;;;;;;;15.20;10.30;;;18.30;99.90;;;;;;5033164;28;20053;-71
2023/05/20 08:50:56;;;;;;;17.83;10.77;;;18.30;99.90;;;;;;5031897;28;20486;-71
2023/05/20 08:53:22;;;;;;;15.27;10.70;;;18.30;99.90;;;;;;5030278;28;20043;-71
2023/05/20 08:56:01;;;;;;;13.93;9.70;;;18.50;99.90;;;;;;5031067;28;20465;-71
2023/05/20 08:58:31;;;;;;;16.98;9.98;;;18.70;99.90;;;;;;5022611;28;20493;-71
2023/05/20 09:00:57;;;;;;;11.90;10.13;;;18.70;99.90;;;;;;5025842;28;20049;-71
2023/05/20 09:03:24;;;;;;;15.90;10.38;;;18.60;99.90;;;;;;5028398;28;20068;-71
2023/05/20 09:05:51;;;;;;;16.23;10.10;;;18.60;99.90;;;;;;5031341;28;20046;-72
2023/05/20 09:08:17;;;;;;;13.23;10.18;;;18.70;99.90;;;;;;5031734;28;20490;-72
2023/05/20 09:10:43;;;;;;;15.07;9.85;;;18.90;99.90;;;;;;5029850;28;20029;-72
2023/05/20 09:13:09;;;;;;;19.17;9.95;;;19.10;99.90;;;;;;5030492;28;20461;-69
2023/05/20 09:15:36;;;;;;;15.68;9.82;;;19.40;99.90;;;;;;5028358;28;20041;-69
2023/05/20 09:18:03;;;;;;;16.48;9.27;;;19.50;99.90;;;;;;5032007;28;20033;-72
2023/05/20 09:20:30;;;;;;;12.30;9.32;;;19.60;99.90;;;;;;5030397;28;20049;-72
2023/05/20 09:23:00;;;;;;;16.52;10.30;;;19.70;99.90;;;;;;5030981;28;20410;-72
2023/05/20 09:25:27;;;;;;;16.77;9.03;;;19.50;99.90;;;;;;5030771;28;20022;-69
2023/05/20 09:27:53;;;;;;;14.55;9.52;;;19.50;99.90;;;;;;5031548;28;20648;-69
2023/05/20 09:30:20;;;;;;;13.88;9.23;;;19.70;99.90;;;;;;5031305;28;20030;-69
2023/05/20 09:32:56;;;;;;;11.95;9.25;;;20.00;99.90;;;;;;5031638;28;20034;-70
2023/05/20 09:35:23;;;;;;;14.10;9.38;;;20.10;99.90;;;;;;5031788;28;20033;-69
2023/05/20 09:37:53;;;;;;;12.43;9.48;;;20.20;99.90;;;;;;5031370;28;20069;-69
2023/05/20 09:40:27;;;;;;;13.68;9.68;;;20.20;99.90;;;;;;5014272;28;20041;-69
2023/05/20 09:43:04;;;;;;;14.40;8.55;;;20.30;99.90;;;;;;5044405;28;20033;-69
2023/05/20 09:45:30;;;;;;;11.68;9.55;;;20.20;99.90;;;;;;5024753;28;20048;-69
2023/05/20 09:47:56;;;;;;;16.83;9.63;;;20.10;99.90;;;;;;5042935;28;20052;-70
2023/05/20 09:50:23;;;;;;;13.90;9.70;;;20.30;99.90;;;;;;5032665;28;20022;-70
2023/05/20 09:52:51;;;;;;;13.38;10.20;;;20.40;99.90;;;;;;5030138;28;20041;-72
2023/05/20 09:55:18;;;;;;;15.38;10.75;;;20.50;99.90;;;;;;5031354;28;20076;-70
2023/05/20 09:57:44;;;;;;;13.48;10.15;;;20.70;99.90;;;;;;5030394;28;20042;-69
2023/05/20 10:00:16;;;;;;;11.50;10.13;;;20.90;99.90;;;;;;5031359;28;20417;-72
2023/05/20 10:02:51;;;;;;;12.55;10.95;;;21.00;99.90;;;;;;5030451;28;20032;-72
2023/05/20 10:05:19;;;;;;;14.85;9.80;;;21.10;99.90;;;;;;5013083;28;20033;-72
2023/05/20 10:07:57;;;;;;;15.75;10.35;;;21.00;99.90;;;;;;5029759;28;20364;-72
2023/05/20 10:10:49;;;;;;;15.52;11.27;;;21.20;99.90;;;;;;5030988;28;20032;-72
2023/05/20 10:13:18;;;;;;;12.73;11.43;;;21.40;99.90;;;;;;5030502;28;20018;-72
2023/05/20 10:16:05;;;;;;;13.32;11.32;;;21.50;99.90;;;;;;5030941;28;20026;-72
2023/05/20 10:19:07;;;;;;;12.75;11.55;;;21.60;99.90;;;;;;5015355;28;20021;-72
2023/05/20 10:21:33;;;;;;;10.95;9.93;;;21.70;99.90;;;;;;5030690;28;20038;-72
2023/05/20 10:24:09;;;;;;;13.13;10.90;;;21.60;99.90;;;;;;5033608;28;20359;-71
2023/05/20 10:26:40;;;;;;;13.35;9.75;;;21.60;99.90;;;;;;5066481;28;20394;-72
2023/05/20 10:29:16;;;;;;;12.02;10.73;;;21.60;99.90;;;;;;5035117;28;20017;-72
2023/05/20 10:31:48;;;;;;;12.57;10.15;;;21.50;99.10;;;;;;5030980;28;20044;-72
2023/05/20 10:34:18;;;;;;;16.90;10.93;;;21.50;99.40;;;;;;5032502;28;20489;-72
2023/05/20 10:36:53;;;;;;;12.65;11.32;;;21.50;99.70;;;;;;5022814;28;20498;-72
2023/05/20 10:39:27;;;;;;;12.60;10.57;;;21.50;99.50;;;;;;5031678;28;20363;-72
2023/05/20 10:42:05;;;;;;;13.30;10.80;;;21.60;99.10;;;;;;5034705;28;20033;-71
2023/05/20 10:44:44;;;;;;;10.95;9.82;;;21.40;99.10;;;;;;5033490;28;20037;-69
2023/05/20 10:47:10;;;;;;;11.63;10.45;;;21.50;99.10;;;;;;5035762;28;20059;-69
2023/05/20 10:49:40;;;;;;;12.00;10.50;;;21.80;98.40;;;;;;5041686;28;20029;-72
2023/05/20 10:52:09;;;;;;;11.57;10.52;;;21.90;98.00;;;;;;5034352;28;20406;-72
2023/05/20 10:54:36;;;;;;;16.23;13.10;;;21.60;97.40;;;;;;5034173;28;20052;-69
2023/05/20 10:57:08;;;;;;;14.65;12.20;;;21.50;97.70;;;;;;5031470;28;20029;-69
2023/05/20 10:59:35;;;;;;;18.10;13.65;;;21.60;97.40;;;;;;5031673;28;20500;-69
2023/05/20 11:02:01;;;;;;;11.55;10.57;;;21.70;96.70;;;;;;5033223;28;20044;-69
2023/05/20 11:04:28;;;;;;;14.02;11.32;;;21.60;97.40;;;;;;5032636;28;20041;-69
2023/05/20 11:06:54;;;;;;;12.77;9.98;;;21.60;97.30;;;;;;5012738;28;20406;-69
2023/05/20 11:09:21;;;;;;;11.80;10.70;;;21.60;97.60;;;;;;5031806;28;20501;-69
2023/05/20 11:11:48;;;;;;;10.57;9.68;;;21.60;97.30;;;;;;5032740;28;20577;-69
2023/05/20 11:14:15;;;;;;;11.35;9.38;;;21.30;97.50;;;;;;5032805;28;20029;-72
2023/05/20 11:16:41;;;;;;;15.10;9.68;;;21.10;97.50;;;;;;5030505;28;20486;-72
2023/05/20 11:19:08;;;;;;;10.65;9.63;;;21.10;97.40;;;;;;5032076;28;20045;-69
2023/05/20 11:21:34;;;;;;;11.20;10.10;;;21.40;96.40;;;;;;5032090;28;20038;-69
2023/05/20 11:24:00;;;;;;;9.80;9.00;;;21.50;96.90;;;;;;5031927;28;20044;-69
2023/05/20 11:26:27;;;;;;;11.18;9.98;;;21.50;97.10;;;;;;5033317;28;20033;-69
2023/05/20 11:28:53;;;;;;;11.57;10.60;;;21.50;97.50;;;;;;5032167;28;20478;-69
2023/05/20 11:31:20;;;;;;;15.50;10.75;;;21.50;97.10;;;;;;5032315;28;20049;-69
2023/05/20 11:33:46;;;;;;;11.68;10.68;;;21.80;96.40;;;;;;5033712;28;20048;-71
2023/05/20 11:36:13;;;;;;;11.13;9.93;;;21.80;96.30;;;;;;5030103;28;20689;-69
2023/05/20 11:38:40;;;;;;;10.60;9.52;;;21.70;96.90;;;;;;5031544;28;20042;-67
2023/05/20 11:41:06;;;;;;;11.20;10.45;;;21.90;96.80;;;;;;5033078;28;20515;-70
2023/05/20 11:43:32;;;;;;;11.48;10.48;;;22.00;96.10;;;;;;5032428;28;20033;-69
2023/05/20 11:45:58;;;;;;;12.15;10.82;;;22.20;95.50;;;;;;5032411;28;20053;-70
2023/05/20 11:48:25;;;;;;;12.10;11.10;;;22.20;96.50;;;;;;5033905;28;20025;-73
2023/05/20 11:50:52;;;;;;;13.90;12.27;;;22.30;96.50;;;;;;5031460;28;20044;-69
2023/05/20 11:53:20;;;;;;;14.07;12.73;;;22.60;96.50;;;;;;5033446;28;20037;-68
2023/05/20 11:55:58;;;;;;;14.73;13.32;;;22.70;96.20;;;;;;5033512;28;20041;-68
2023/05/20 11:58:31;;;;;;;16.42;14.93;;;22.80;95.20;;;;;;5032283;28;20033;-72
2023/05/20 12:00:57;;;;;;;19.10;15.15;;;22.30;94.80;;;;;;5031334;28;20034;-69
2023/05/20 12:03:23;;;;;;;25.95;20.45;;;22.10;95.80;;;;;;5032287;28;20048;-68
2023/05/20 12:05:52;;;;;;;13.75;12.43;;;22.20;96.10;;;;;;5030927;28;20430;-67
2023/05/20 12:08:18;;;;;;;13.65;12.30;;;22.30;95.60;;;;;;5032229;28;20034;-65
2023/05/20 12:10:44;;;;;;;11.95;10.85;;;22.30;96.40;;;;;;5031918;28;20402;-65
2023/05/20 12:13:12;;;;;;;11.85;10.88;;;22.20;95.90;;;;;;5032344;28;20033;-72
2023/05/20 12:15:38;;;;;;;12.05;11.07;;;22.20;95.50;;;;;;5029810;28;20037;-65
2023/05/20 12:18:05;;;;;;;12.30;11.13;;;22.20;95.40;;;;;;5033034;28;20041;-64
2023/05/20 12:20:33;;;;;;;11.95;10.95;;;22.10;96.20;;;;;;5031776;28;20056;-65
2023/05/20 12:22:59;;;;;;;12.30;10.73;;;22.10;96.50;;;;;;5032794;28;20045;-65
2023/05/20 12:25:25;;;;;;;11.88;10.82;;;22.20;96.80;;;;;;5032652;28;20060;-70
2023/05/20 12:27:52;;;;;;;12.13;10.95;;;22.30;95.90;;;;;;5028141;28;20044;-70